ENAN/ANX METAR and TAF weather

Enter ICAO airport designator
Station Type Date Time Source
ENAN METAR 2018/10/21 04:20 UTC NOAA

ENAN 210420Z AUTO 23027G42KT 9999 -DZ FEW013/// SCT030/// BKN043/// 08/05 Q0990


Station Type Date Time Source
ENAN Decoded METAR 2018/10/21 04:20 UTC NOAA

Andoya, Norway (ENAN) 69-18N 016-09E 14M
Oct 21, 2018 - 12:20 AM EDT / 2018.10.21 0420 UTC
Wind: from the SW (230 degrees) at 31 MPH (27 KT) gusting to 48 MPH (42 KT):0
Visibility: greater than 7 mile(s):0
Sky conditions: mostly cloudy
Weather: light drizzle
Temperature: 46 F (8 C)
Dew Point: 41 F (5 C)
Relative Humidity: 81%
Pressure (altimeter): 29.23 in. Hg (0990 hPa)
ob: ENAN 210420Z AUTO 23027G42KT 9999 -DZ FEW013/// SCT030/// BKN043/// 08/05 Q0990
cycle: 4

Station Type Date Time Source
ENAN TAF 2018/10/20 18:57 UTC NOAA

TAF TAF ENAN 201700Z 2018/2118 19025KT 9999 -RA FEW015 BKN025
TEMPO 2018/2022 19015KT
TEMPO 2020/2103 18030G40KT RA BKN012
TEMPO 2103/2118 23030G45KT 4000 SHRAGS BKN012CB PROB30
TEMPO 2107/2110 TS


Example: see airport list